»·PEaware :: N2114H KMRY-KSNA

N2114H :: KMRY-KSNA

FLIGHT INFORMATION

Flight Status: Arrived
Operator: Privately registered:
United States
More flights under this callsign
Pilot: John H. (10732)
Aircraft: BRITISH AERO BAe-125-700/800
(H25B)
More flights by this aircraft type
Origin: KMRY Monterey Peninsula
United States
Destination: KSNA John Wayne-Orange Co
United States
More flights between these airports :: More routes between these airports
Route: +MRY5 SHOEY BSR RDHOT OHSEA2
File this flight plan on PilotEdge
Remarks:
Altitude:
(Current/Filed)
37,000ft
Speed:
(Current/Filed)
485kts
Departed: 29-May-19 12:12 PM
Arrived: 29-May-19 01:13 PM
Distance/Time
Traveled:
262nm/1:00
Distance/Time
To Go:
Arrived

Flight Plot

Page will automatically refresh every two minutes.

Flight plan parsing failed; only flown route is shown


Map Options




Map Legend


Flown Route
Filed Route
Departure Airport
Arrival Airport
Navaid (VOR, NDB)
Fix

Horizontal Profiles

Position Reports

Time Latitude Longitude Heading Altitude Ground
Speed
29-May-19 11:53 36.584867 -121.846614 197 262ft 0kts
29-May-19 11:54 36.584867 -121.846614 197 262ft 0kts
29-May-19 11:55 36.584867 -121.846614 197 262ft 0kts
29-May-19 11:56 36.584867 -121.846614 197 262ft 0kts
29-May-19 11:57 36.584867 -121.846614 197 262ft 0kts
29-May-19 11:58 36.584867 -121.846614 197 262ft 0kts
29-May-19 11:59 36.584867 -121.846614 197 262ft 0kts
29-May-19 12:00 36.584867 -121.846614 197 262ft 0kts
29-May-19 12:01 36.584867 -121.846614 197 262ft 0kts
29-May-19 12:02 36.584867 -121.846614 197 262ft 0kts
29-May-19 12:03 36.584867 -121.846614 197 262ft 0kts
29-May-19 12:04 36.584867 -121.846614 197 262ft 0kts
29-May-19 12:05 36.584867 -121.846614 197 262ft 0kts
29-May-19 12:06 36.584867 -121.846614 197 262ft 0kts
29-May-19 12:07 36.585130 -121.846171 17 262ft 10kts
29-May-19 12:08 36.585245 -121.842512 109 262ft 28kts
29-May-19 12:09 36.582776 -121.835318 112 262ft 0kts
29-May-19 12:10 36.582956 -121.833874 58 262ft 4kts
29-May-19 12:11 36.587058 -121.844405 296 332ft 132kts
29-May-19 12:12 36.625659 -121.863450 41 2521ft 236kts
29-May-19 12:13 36.641046 -121.766174 59 4625ft 342kts
29-May-19 12:14 36.707587 -121.703185 71 6712ft 271kts
29-May-19 12:15 36.680465 -121.615249 140 10478ft 299kts
29-May-19 12:16 36.596953 -121.602174 185 13890ft 320kts
29-May-19 12:17 36.506844 -121.601645 152 17361ft 337kts
29-May-19 12:18 36.443280 -121.513729 128 20859ft 353kts
29-May-19 12:20 36.376695 -121.420151 130 24020ft 369kts
29-May-19 12:21 36.307669 -121.325343 129 27054ft 368kts
29-May-19 12:22 36.238199 -121.230255 129 29344ft 373kts
29-May-19 12:23 36.167202 -121.133398 129 31268ft 380kts
29-May-19 12:24 36.093575 -121.033213 130 32021ft 414kts
29-May-19 12:25 36.016122 -120.928247 132 33316ft 427kts
29-May-19 12:26 35.935212 -120.818907 134 34931ft 426kts
29-May-19 12:27 35.855083 -120.710999 135 36315ft 428kts
29-May-19 12:28 35.774418 -120.602708 131 37221ft 437kts
29-May-19 12:29 35.688315 -120.487483 132 36967ft 471kts
29-May-19 12:30 35.596774 -120.367804 135 36973ft 490kts
29-May-19 12:31 35.500396 -120.267190 141 36970ft 499kts
29-May-19 12:32 35.391896 -120.159148 141 36977ft 506kts
29-May-19 12:33 35.282195 -120.050013 141 36978ft 506kts
29-May-19 12:34 35.173102 -119.941843 142 36979ft 505kts
29-May-19 12:35 35.064677 -119.832896 139 36981ft 504kts
29-May-19 12:35 34.980665 -119.734142 136 36982ft 504kts
29-May-19 12:37 34.866096 -119.595462 136 36983ft 489kts
29-May-19 12:38 34.774233 -119.485156 137 35178ft 445kts
29-May-19 12:39 34.688543 -119.382667 137 32891ft 418kts
29-May-19 12:39 34.617238 -119.297565 136 31038ft 467kts
29-May-19 12:41 34.503459 -119.160902 135 28382ft 493kts
29-May-19 12:42 34.411000 -119.053225 136 26232ft 416kts
29-May-19 12:42 34.349722 -118.983080 137 24837ft 403kts
29-May-19 12:43 34.269570 -118.891751 137 23012ft 391kts
29-May-19 12:45 34.161951 -118.819647 162 20943ft 377kts
29-May-19 12:45 34.079455 -118.786682 162 19502ft 371kts
29-May-19 12:46 33.986046 -118.750415 163 17861ft 339kts
29-May-19 12:47 33.896509 -118.715819 162 16310ft 338kts
29-May-19 12:48 33.806890 -118.681236 162 14749ft 337kts
29-May-19 12:49 33.717814 -118.647453 164 13189ft 331kts
29-May-19 12:50 33.629520 -118.616617 163 11656ft 326kts
29-May-19 12:51 33.565395 -118.547329 124 10180ft 313kts
29-May-19 12:52 33.523385 -118.459585 105 8756ft 290kts
29-May-19 12:53 33.519093 -118.365473 92 7450ft 278kts
29-May-19 12:54 33.536054 -118.277196 69 6274ft 271kts
29-May-19 12:55 33.562560 -118.193548 67 5194ft 267kts
29-May-19 12:56 33.600901 -118.118017 55 4299ft 258kts
29-May-19 12:57 33.649149 -118.055800 44 3993ft 249kts
29-May-19 12:58 33.698817 -117.993711 45 3994ft 269kts
29-May-19 12:59 33.751881 -117.926741 46 3993ft 280kts
29-May-19 13:00 33.805852 -117.858431 46 3996ft 283kts
29-May-19 13:01 33.859401 -117.790524 46 3997ft 274kts
29-May-19 13:02 33.909371 -117.727074 45 3995ft 247kts
29-May-19 13:03 33.965596 -117.684325 27 3995ft 240kts
29-May-19 13:04 34.026912 -117.682763 301 3996ft 254kts
29-May-19 13:05 33.994556 -117.737858 168 3995ft 259kts
29-May-19 13:06 33.927967 -117.709027 195 3995ft 261kts
29-May-19 13:07 33.862988 -117.749380 208 3998ft 263kts
29-May-19 13:08 33.799746 -117.790258 207 2725ft 227kts
29-May-19 13:09 33.750530 -117.821137 208 1542ft 163kts
29-May-19 13:10 33.718571 -117.841404 212 785ft 102kts
29-May-19 13:11 33.694016 -117.856314 215 366ft 96kts
29-May-19 13:12 33.677637 -117.867786 305 61ft 9kts
29-May-19 13:13 33.677540 -117.869259 203 61ft 13kts
29-May-19 13:14 33.675296 -117.871267 228 61ft 0kts
29-May-19 13:15 33.675294 -117.871270 228 61ft 0kts

Navigation Log

Ident Type
Flight plan parsing failed, navigation log unavailable